createdAt,value
2023-04-25T00:05:16.640Z,8.97
2023-04-25T00:08:18.733Z,8.97
2023-04-25T00:11:20.664Z,8.96
2023-04-25T00:14:23.526Z,8.97
2023-04-25T00:17:25.431Z,8.99
2023-04-25T00:20:27.314Z,9.04
2023-04-25T00:23:29.401Z,9.09
2023-04-25T00:26:31.321Z,9.18
2023-04-25T00:29:34.082Z,9.26
2023-04-25T00:32:36.366Z,9.33
2023-04-25T00:35:38.889Z,9.40
2023-04-25T00:38:40.852Z,9.45
2023-04-25T00:41:44.272Z,9.47
2023-04-25T00:44:47.086Z,9.49
2023-04-25T00:47:49.096Z,9.46
2023-04-25T00:50:57.221Z,9.42
2023-04-25T00:53:59.904Z,9.36
2023-04-25T00:57:03.441Z,9.29
2023-04-25T01:00:07.222Z,9.23
2023-04-25T01:03:11.509Z,9.18
2023-04-25T01:06:13.954Z,9.17
2023-04-25T01:09:16.498Z,9.15
2023-04-25T01:12:19.122Z,9.15
2023-04-25T01:15:22.535Z,9.14
2023-04-25T01:18:25.058Z,9.14
2023-04-25T01:21:28.576Z,9.11
2023-04-25T01:24:33.151Z,9.08
2023-04-25T01:27:37.317Z,9.06
2023-04-25T01:30:39.772Z,9.03
2023-04-25T01:33:42.139Z,9.01
2023-04-25T01:36:44.059Z,8.99
2023-04-25T01:39:46.246Z,8.96
2023-04-25T01:42:48.968Z,8.94
2023-04-25T01:45:51.891Z,8.91
2023-04-25T01:48:54.062Z,8.88
2023-04-25T01:55:33.028Z,8.87
2023-04-25T01:58:40.794Z,8.83
2023-04-25T02:05:15.978Z,8.77
2023-04-25T02:08:19.320Z,8.78
2023-04-25T02:11:21.307Z,8.78
2023-04-25T02:14:43.888Z,8.76
2023-04-25T02:17:56.442Z,8.72
2023-04-25T02:21:00.131Z,8.70
2023-04-25T02:24:02.588Z,8.67
2023-04-25T02:27:04.761Z,8.63
2023-04-25T02:30:07.619Z,8.58
2023-04-25T02:33:10.960Z,8.53
2023-04-25T02:36:13.215Z,8.47
2023-04-25T02:39:17.555Z,8.42
2023-04-25T02:42:19.919Z,8.37
2023-04-25T02:45:21.998Z,8.33
2023-04-25T02:48:24.118Z,8.28
2023-04-25T02:51:27.439Z,8.24
2023-04-25T02:54:31.017Z,8.20
2023-04-25T02:57:33.234Z,8.17
2023-04-25T03:00:35.215Z,8.13
2023-04-25T03:03:37.553Z,8.13
2023-04-25T03:06:40.667Z,8.11
2023-04-25T03:09:42.679Z,8.09
2023-04-25T03:12:45.015Z,8.08
2023-04-25T03:15:46.970Z,8.08
2023-04-25T03:18:50.867Z,8.10
2023-04-25T03:21:55.164Z,8.11
2023-04-25T03:24:57.193Z,8.12
2023-04-25T03:27:59.917Z,8.14
2023-04-25T03:31:03.227Z,8.18
2023-04-25T03:34:05.903Z,8.22
2023-04-25T03:37:08.195Z,8.25
2023-04-25T03:40:12.933Z,8.30
2023-04-25T03:43:35.879Z,8.35
2023-04-25T03:46:41.326Z,8.41
2023-04-25T03:49:43.777Z,8.45
2023-04-25T03:52:45.891Z,8.50
2023-04-25T03:55:48.256Z,8.56
2023-04-25T03:58:50.709Z,8.61
2023-04-25T04:05:15.315Z,8.70
2023-04-25T04:08:26.430Z,8.77
2023-04-25T04:11:31.254Z,8.81
2023-04-25T04:14:34.322Z,8.88
2023-04-25T04:17:37.968Z,8.95
2023-04-25T04:20:40.230Z,9.03
2023-04-25T04:23:42.569Z,9.09
2023-04-25T04:26:47.431Z,9.17
2023-04-25T04:30:08.881Z,9.26
2023-04-25T04:33:21.901Z,9.34
2023-04-25T04:36:31.383Z,9.42
2023-04-25T04:39:34.924Z,9.50
2023-04-25T04:42:46.994Z,9.59
2023-04-25T04:46:02.117Z,9.68
2023-04-25T04:49:41.160Z,9.77
2023-04-25T04:53:05.203Z,9.86
2023-04-25T04:56:31.534Z,9.96
2023-04-25T04:59:51.058Z,10.07
2023-04-25T05:03:15.163Z,10.17
2023-04-25T05:06:36.621Z,10.28
2023-04-25T05:10:13.935Z,10.40
2023-04-25T05:13:45.839Z,10.50
2023-04-25T05:17:16.402Z,10.62
2023-04-25T05:20:40.770Z,10.74
2023-04-25T05:24:03.847Z,10.84
2023-04-25T05:27:35.053Z,10.96
2023-04-25T05:30:51.935Z,11.08
2023-04-25T05:33:59.006Z,11.18
2023-04-25T05:37:09.454Z,11.28
2023-04-25T05:40:23.183Z,11.40
2023-04-25T05:43:52.660Z,11.51
2023-04-25T05:47:01.633Z,11.62
2023-04-25T05:50:26.556Z,11.71
2023-04-25T05:53:39.599Z,11.80
2023-04-25T05:56:42.914Z,11.89
2023-04-25T05:59:46.667Z,11.99
2023-04-25T06:05:16.905Z,12.13
2023-04-25T06:08:20.963Z,12.24
2023-04-25T06:11:24.312Z,12.33
2023-04-25T06:14:29.721Z,12.45
2023-04-25T06:17:32.164Z,12.56
2023-04-25T06:20:35.099Z,12.66
2023-04-25T06:23:37.042Z,12.77
2023-04-25T06:26:42.902Z,12.88
2023-04-25T06:29:45.324Z,13.00
2023-04-25T06:32:51.637Z,13.10
2023-04-25T06:35:54.330Z,13.22
2023-04-25T06:39:05.017Z,13.33
2023-04-25T06:42:10.911Z,13.45
2023-04-25T06:45:21.267Z,13.56
2023-04-25T06:48:24.929Z,13.66
2023-04-25T06:51:30.244Z,13.78
2023-04-25T06:54:33.609Z,13.88
2023-04-25T06:57:40.544Z,14.00
2023-04-25T07:01:04.944Z,14.11
2023-04-25T07:04:08.132Z,14.22
2023-04-25T07:07:14.385Z,14.34
2023-04-25T07:10:28.286Z,14.49
2023-04-25T07:13:31.281Z,14.61
2023-04-25T07:16:34.226Z,14.70
2023-04-25T07:24:12.764Z,15.01
2023-04-25T07:42:48.371Z,15.56
2023-04-25T07:47:15.880Z,15.67
2023-04-25T07:55:40.125Z,15.94
2023-04-25T08:05:36.390Z,16.25
2023-04-25T08:10:01.066Z,16.58
2023-04-25T08:29:47.268Z,18.16
2023-04-25T08:50:20.707Z,18.87
2023-04-25T08:58:09.996Z,19.12
2023-04-25T09:02:27.533Z,19.21
2023-04-25T09:07:07.411Z,19.21
2023-04-25T09:15:54.370Z,19.45
2023-04-25T09:40:34.782Z,19.96
2023-04-25T09:50:03.902Z,19.47
2023-04-25T10:05:46.449Z,19.70
2023-04-25T10:08:55.701Z,19.50
2023-04-25T10:11:59.529Z,19.54
2023-04-25T10:15:06.184Z,19.57
2023-04-25T10:18:10.137Z,19.61
2023-04-25T10:21:20.575Z,19.57
2023-04-25T10:24:24.667Z,19.27
2023-04-25T10:27:30.613Z,19.24
2023-04-25T10:30:32.733Z,19.53
2023-04-25T10:33:42.630Z,19.88
2023-04-25T10:36:53.041Z,20.16
2023-04-25T10:39:55.133Z,20.39
2023-04-25T10:43:38.535Z,20.66
2023-04-25T10:46:41.000Z,21.01
2023-04-25T10:49:52.560Z,21.48
2023-04-25T10:52:57.461Z,22.01
2023-04-25T10:56:04.447Z,22.28
2023-04-25T10:59:47.014Z,22.62
2023-04-25T11:14:21.007Z,22.80
2023-04-25T11:24:02.339Z,24.22
2023-04-25T11:27:35.408Z,24.27
2023-04-25T11:31:25.989Z,23.72
2023-04-25T11:39:50.777Z,23.22
2023-04-25T11:48:51.154Z,23.90
2023-04-25T11:52:42.134Z,24.53
2023-04-25T11:56:17.299Z,25.08
2023-04-25T12:04:38.043Z,24.76
2023-04-25T12:08:52.888Z,25.01
2023-04-25T12:39:25.296Z,25.41
2023-04-25T13:19:10.793Z,26.71
2023-04-25T13:23:26.405Z,27.10
2023-04-25T13:26:52.403Z,26.69
2023-04-25T13:35:54.698Z,24.67
2023-04-25T13:50:30.374Z,24.49
2023-04-25T14:06:39.383Z,26.87
2023-04-25T14:10:04.799Z,25.68
2023-04-25T14:13:49.043Z,25.42
2023-04-25T14:17:14.094Z,26.36
2023-04-25T14:26:24.066Z,28.41
2023-04-25T14:35:29.522Z,30.32
2023-04-25T14:44:10.761Z,28.45
2023-04-25T14:48:26.216Z,26.61
2023-04-25T14:52:29.110Z,25.48
2023-04-25T15:06:37.669Z,24.65
2023-04-25T15:10:18.290Z,25.17
2023-04-25T15:24:41.245Z,26.53
2023-04-25T15:28:34.446Z,27.30
2023-04-25T15:42:50.863Z,26.52
2023-04-25T15:46:35.990Z,24.89
2023-04-25T15:50:06.784Z,23.85
2023-04-25T15:53:38.881Z,23.32
2023-04-25T15:57:23.591Z,23.36
2023-04-25T16:01:15.714Z,23.73
2023-04-25T16:11:10.697Z,23.97
2023-04-25T16:20:28.076Z,23.90
2023-04-25T16:24:20.126Z,23.40
2023-04-25T16:27:48.913Z,22.69
2023-04-25T16:36:46.509Z,22.62
2023-04-25T16:40:23.524Z,22.68
2023-04-25T16:43:47.762Z,22.65
2023-04-25T16:47:49.347Z,22.50
2023-04-25T16:51:23.695Z,22.15
2023-04-25T17:09:17.900Z,19.54
2023-04-25T17:55:56.587Z,15.93
2023-04-25T18:00:05.247Z,15.77
2023-04-25T18:11:07.684Z,15.40
2023-04-25T18:15:10.649Z,15.27
2023-04-25T18:19:18.963Z,15.14
2023-04-25T18:22:38.494Z,15.02
2023-04-25T18:25:59.263Z,14.92
2023-04-25T18:30:25.049Z,14.86
2023-04-25T18:33:50.340Z,14.75
2023-04-25T18:37:39.150Z,14.67
2023-04-25T18:45:45.833Z,14.49
2023-04-25T18:49:20.058Z,14.44
2023-04-25T18:53:05.598Z,14.41
2023-04-25T18:56:26.755Z,14.40
2023-04-25T19:00:04.701Z,14.40
2023-04-25T19:03:30.641Z,14.41
2023-04-25T19:07:24.674Z,14.40
2023-04-25T19:11:14.187Z,14.36
2023-04-25T19:14:50.168Z,14.28
2023-04-25T19:18:02.302Z,14.22
2023-04-25T19:21:21.177Z,14.19
2023-04-25T19:25:09.002Z,14.16
2023-04-25T19:28:29.003Z,14.13
2023-04-25T19:31:48.799Z,14.10
2023-04-25T19:35:32.810Z,14.06
2023-04-25T19:39:08.975Z,13.98
2023-04-25T19:42:25.047Z,13.91
2023-04-25T19:45:48.078Z,13.83
2023-04-25T19:49:09.640Z,13.72
2023-04-25T19:52:17.851Z,13.61
2023-04-25T19:59:27.228Z,13.40
2023-04-25T20:06:06.790Z,13.32
2023-04-25T20:09:42.782Z,13.33
2023-04-25T20:13:51.048Z,13.32
2023-04-25T20:18:16.484Z,13.32
2023-04-25T20:27:29.542Z,13.24
2023-04-25T20:31:10.325Z,13.15
2023-04-25T20:34:55.409Z,13.08
2023-04-25T20:38:28.020Z,12.99
2023-04-25T20:48:02.257Z,12.74
2023-04-25T20:56:56.118Z,12.53
2023-04-25T21:09:43.401Z,12.36
2023-04-25T21:14:23.958Z,12.30
2023-04-25T21:22:51.016Z,12.15
2023-04-25T21:26:21.974Z,12.09
2023-04-25T21:29:51.081Z,12.03
2023-04-25T21:33:01.470Z,11.97
2023-04-25T21:36:52.569Z,11.91
2023-04-25T21:41:25.326Z,11.83
2023-04-25T21:45:43.404Z,11.77
2023-04-25T21:50:02.555Z,11.73
2023-04-25T21:54:07.400Z,11.73
2023-04-25T21:57:23.190Z,11.72
2023-04-25T22:31:48.595Z,11.52
2023-04-25T22:41:37.270Z,11.37
2023-04-25T22:45:35.915Z,11.30
2023-04-25T22:49:02.139Z,11.21
2023-04-25T22:53:00.439Z,11.16
2023-04-25T22:56:52.293Z,11.12
2023-04-25T23:01:18.903Z,11.11
2023-04-25T23:21:02.519Z,10.85
2023-04-25T23:35:59.297Z,10.71
2023-04-25T23:39:56.666Z,10.66
